Time;durP1;ratioP1;P1;durP2;ratioP2;P2;SDS_P1;SDS_P2;PMS_P1;PMS_P2;Temp;Humidity;BMP_temperature;BMP_pressure;BME280_temperature;BME280_humidity;BME280_pressure;Samples;Min_cycle;Max_cycle;Signal;HPM_P1;HPM_P2
2024/02/19 00:01:31;;;;;;;;;;;;;;;;;;5026205;28;19909;-52
2024/02/19 00:03:57;;;;;;;;;;;;;;;;;;5025676;28;19991;-54
2024/02/19 00:06:23;;;;;;;;;;;;;;;;;;5025643;28;20193;-56
2024/02/19 00:08:52;;;;;;;;;;;;;;;;;;5025618;28;19943;-48
2024/02/19 00:11:19;;;;;;;;;;;;;;;;;;5025010;28;19909;-50
2024/02/19 00:13:45;;;;;;;;;;;;;;;;;;5026495;28;19944;-50
2024/02/19 00:16:11;;;;;;;;;;;;;;;;;;5025980;28;19967;-47
2024/02/19 00:18:37;;;;;;;;;;;;;;;;;;5026660;28;19905;-55
2024/02/19 00:21:03;;;;;;;;;;;;;;;;;;5026328;28;19937;-50
2024/02/19 00:23:32;;;;;;;;;;;;;;;;;;5026384;28;20142;-51
2024/02/19 00:26:00;;;;;;;;;;;;;;;;;;5025784;28;19915;-50
2024/02/19 00:28:26;;;;;;;;;;;;;;;;;;5026221;28;19905;-48
2024/02/19 00:30:54;;;;;;;;;;;;;;;;;;5024786;28;19944;-52
2024/02/19 00:33:21;;;;;;;;;;;;;;;;;;5025429;28;19918;-53
2024/02/19 00:35:47;;;;;;;;;;;;;;;;;;5025585;28;19909;-51
2024/02/19 00:38:14;;;;;;;;;;;;;;;;;;5026052;28;19905;-54
2024/02/19 00:40:40;;;;;;;;;;;;;;;;;;5025579;28;19909;-48
2024/02/19 00:43:06;;;;;;;;;;;;;;;;;;5018907;28;20216;-52
2024/02/19 00:45:32;;;;;;;;;;;;;;;;;;5015121;28;19905;-51
2024/02/19 00:47:59;;;;;;;;;;;;;;;;;;5014643;28;19940;-54
2024/02/19 00:50:25;;;;;;;;;;;;;;;;;;5016348;28;19909;-54
2024/02/19 00:52:51;;;;;;;;;;;;;;;;;;5014849;28;19944;-48
2024/02/19 00:55:17;;;;;;;;;;;;;;;;;;5014520;28;19905;-55
2024/02/19 00:57:43;;;;;;;;;;;;;;;;;;5016129;28;20133;-50
2024/02/19 01:00:09;;;;;;;;;;;;;;;;;;5014431;28;19936;-51
2024/02/19 01:02:36;;;;;;;;;;;;;;;;;;5019520;28;19948;-55
2024/02/19 01:05:02;;;;;;;;;;;;;;;;;;5016445;28;19932;-53
2024/02/19 01:07:28;;;;;;;;;;;;;;;;;;5014306;28;19908;-53
2024/02/19 01:09:55;;;;;;;;;;;;;;;;;;5014788;28;19905;-48
2024/02/19 01:12:21;;;;;;;;;;;;;;;;;;5015756;28;19915;-54
2024/02/19 01:14:47;;;;;;;;;;;;;;;;;;5013680;28;20198;-50
2024/02/19 01:17:14;;;;;;;;;;;;;;;;;;5013773;28;19928;-52
2024/02/19 01:19:40;;;;;;;;;;;;;;;;;;5016616;28;20265;-49
2024/02/19 01:22:06;;;;;;;;;;;;;;;;;;5024539;28;19909;-51
2024/02/19 01:24:32;;;;;;;;;;;;;;;;;;5025435;28;19941;-53
2024/02/19 01:26:59;;;;;;;;;;;;;;;;;;5024963;28;19912;-48
2024/02/19 01:29:25;;;;;;;;;;;;;;;;;;5025504;28;19954;-49
2024/02/19 01:31:51;;;;;;;;;;;;;;;;;;5016021;28;20281;-56
2024/02/19 01:34:18;;;;;;;;;;;;;;;;;;5015253;28;19905;-51
2024/02/19 01:36:46;;;;;;;;;;;;;;;;;;5013439;28;19917;-54
2024/02/19 01:39:12;;;;;;;;;;;;;;;;;;5014722;28;19909;-48
2024/02/19 01:41:38;;;;;;;;;;;;;;;;;;5015333;28;19909;-57
2024/02/19 01:44:07;;;;;;;;;;;;;;;;;;5013693;28;19929;-54
2024/02/19 01:46:33;;;;;;;;;;;;;;;;;;5014115;28;19916;-53
2024/02/19 01:49:00;;;;;;;;;;;;;;;;;;5015369;28;19949;-52
2024/02/19 01:51:27;;;;;;;;;;;;;;;;;;5013444;28;19906;-55
2024/02/19 01:53:54;;;;;;;;;;;;;;;;;;5014659;28;20178;-52
2024/02/19 01:56:20;;;;;;;;;;;;;;;;;;5014922;28;19952;-48
2024/02/19 01:58:46;;;;;;;;;;;;;;;;;;5013635;28;20204;-56
2024/02/19 02:01:12;;;;;;;;;;;;;;;;;;5014707;28;19906;-56
2024/02/19 02:03:38;;;;;;;;;;;;;;;;;;5014848;28;19913;-59
2024/02/19 02:06:04;;;;;;;;;;;;;;;;;;5013198;28;19953;-57
2024/02/19 02:08:31;;;;;;;;;;;;;;;;;;5015114;28;19905;-49
2024/02/19 02:10:57;;;;;;;;;;;;;;;;;;5014627;28;19928;-52
2024/02/19 02:13:23;;;;;;;;;;;;;;;;;;5013337;28;19913;-52
2024/02/19 02:15:49;;;;;;;;;;;;;;;;;;5014851;28;19913;-48
2024/02/19 02:18:16;;;;;;;;;;;;;;;;;;5014520;28;20182;-53
2024/02/19 02:20:42;;;;;;;;;;;;;;;;;;5012946;28;19917;-50
2024/02/19 02:23:10;;;;;;;;;;;;;;;;;;5014899;28;19972;-53
2024/02/19 02:25:37;;;;;;;;;;;;;;;;;;5014238;28;20130;-50
2024/02/19 02:28:03;;;;;;;;;;;;;;;;;;5014379;28;19909;-52
2024/02/19 02:30:29;;;;;;;;;;;;;;;;;;5021672;28;19912;-50
2024/02/19 02:32:55;;;;;;;;;;;;;;;;;;5021943;28;20082;-54
2024/02/19 02:35:22;;;;;;;;;;;;;;;;;;5016747;28;19905;-51
2024/02/19 02:37:48;;;;;;;;;;;;;;;;;;5018658;28;19979;-54
2024/02/19 02:40:14;;;;;;;;;;;;;;;;;;5019899;28;20243;-54
2024/02/19 02:42:40;;;;;;;;;;;;;;;;;;5020850;28;19906;-50
2024/02/19 02:45:06;;;;;;;;;;;;;;;;;;5016594;28;19941;-61
2024/02/19 02:47:33;;;;;;;;;;;;;;;;;;5017797;28;19901;-53
2024/02/19 02:50:00;;;;;;;;;;;;;;;;;;5018463;28;19906;-49
2024/02/19 02:52:26;;;;;;;;;;;;;;;;;;5016775;28;20201;-51
2024/02/19 02:54:52;;;;;;;;;;;;;;;;;;5018466;28;19913;-56
2024/02/19 02:57:18;;;;;;;;;;;;;;;;;;5017816;28;19906;-49
2024/02/19 02:59:44;;;;;;;;;;;;;;;;;;5016247;28;19906;-55
2024/02/19 03:02:11;;;;;;;;;;;;;;;;;;5017932;28;19909;-51
2024/02/19 03:04:37;;;;;;;;;;;;;;;;;;5017753;28;19914;-56
2024/02/19 03:07:03;;;;;;;;;;;;;;;;;;5016261;28;19936;-57
2024/02/19 03:09:29;;;;;;;;;;;;;;;;;;5017899;28;19906;-57
2024/02/19 03:11:55;;;;;;;;;;;;;;;;;;5021619;28;20199;-57
2024/02/19 03:14:22;;;;;;;;;;;;;;;;;;5018063;28;20093;-55
2024/02/19 03:16:48;;;;;;;;;;;;;;;;;;5023203;28;19910;-45
2024/02/19 03:19:14;;;;;;;;;;;;;;;;;;5018573;28;19912;-48
2024/02/19 03:21:44;;;;;;;;;;;;;;;;;;5017777;28;19906;-52
2024/02/19 03:24:10;;;;;;;;;;;;;;;;;;5016804;28;20079;-51
2024/02/19 03:26:36;;;;;;;;;;;;;;;;;;5016735;28;19905;-52
2024/02/19 03:29:03;;;;;;;;;;;;;;;;;;5018171;28;19913;-49
2024/02/19 03:31:29;;;;;;;;;;;;;;;;;;5016148;28;20133;-57
2024/02/19 03:33:55;;;;;;;;;;;;;;;;;;5018449;28;19972;-58
2024/02/19 03:36:21;;;;;;;;;;;;;;;;;;5026584;28;19917;-55
2024/02/19 03:38:48;;;;;;;;;;;;;;;;;;5026960;28;19940;-49
2024/02/19 03:41:14;;;;;;;;;;;;;;;;;;5026131;28;20194;-50
2024/02/19 03:43:40;;;;;;;;;;;;;;;;;;5026833;28;19912;-49
2024/02/19 03:46:07;;;;;;;;;;;;;;;;;;5026522;28;19912;-47
2024/02/19 03:48:33;;;;;;;;;;;;;;;;;;5025230;28;19940;-50
2024/02/19 03:51:00;;;;;;;;;;;;;;;;;;5025838;28;19906;-49
2024/02/19 03:53:26;;;;;;;;;;;;;;;;;;5025535;28;19913;-54
2024/02/19 03:55:52;;;;;;;;;;;;;;;;;;5026409;28;19905;-53
2024/02/19 03:58:18;;;;;;;;;;;;;;;;;;5026570;28;19905;-51
2024/02/19 04:00:44;;;;;;;;;;;;;;;;;;5024585;28;19933;-50
2024/02/19 04:03:11;;;;;;;;;;;;;;;;;;5024811;28;19948;-55
2024/02/19 04:05:37;;;;;;;;;;;;;;;;;;5024570;28;19989;-53
2024/02/19 04:08:03;;;;;;;;;;;;;;;;;;5024703;28;19912;-52
2024/02/19 04:10:29;;;;;;;;;;;;;;;;;;5024879;28;19906;-51
2024/02/19 04:12:56;;;;;;;;;;;;;;;;;;5024593;28;20121;-48
2024/02/19 04:15:22;;;;;;;;;;;;;;;;;;5025549;28;19912;-45
2024/02/19 04:17:49;;;;;;;;;;;;;;;;;;5026413;28;19913;-52
2024/02/19 04:20:16;;;;;;;;;;;;;;;;;;5026042;28;19971;-53
2024/02/19 04:22:42;;;;;;;;;;;;;;;;;;5008453;28;19905;-48
2024/02/19 04:25:08;;;;;;;;;;;;;;;;;;5025936;28;20101;-46
2024/02/19 04:27:34;;;;;;;;;;;;;;;;;;5025929;28;19905;-52
2024/02/19 04:30:01;;;;;;;;;;;;;;;;;;5025656;28;20106;-51
2024/02/19 04:32:27;;;;;;;;;;;;;;;;;;5025833;28;20159;-51
2024/02/19 04:34:55;;;;;;;;;;;;;;;;;;5025730;28;19964;-50
2024/02/19 04:37:21;;;;;;;;;;;;;;;;;;5025508;28;19979;-49
2024/02/19 04:39:47;;;;;;;;;;;;;;;;;;5025680;28;19944;-50
2024/02/19 04:42:14;;;;;;;;;;;;;;;;;;5025790;28;19933;-51
2024/02/19 04:44:40;;;;;;;;;;;;;;;;;;5025886;28;20190;-49
2024/02/19 04:47:06;;;;;;;;;;;;;;;;;;5025426;28;19920;-48
2024/02/19 04:49:32;;;;;;;;;;;;;;;;;;5026071;28;19977;-49
2024/02/19 04:51:58;;;;;;;;;;;;;;;;;;5025146;28;19908;-47
2024/02/19 04:54:25;;;;;;;;;;;;;;;;;;5025817;28;19936;-49
2024/02/19 04:56:51;;;;;;;;;;;;;;;;;;5025318;28;19909;-54
2024/02/19 04:59:17;;;;;;;;;;;;;;;;;;5025284;28;19905;-45
2024/02/19 05:01:44;;;;;;;;;;;;;;;;;;5025268;28;19951;-51
2024/02/19 05:04:11;;;;;;;;;;;;;;;;;;5025478;28;19913;-46
2024/02/19 05:06:37;;;;;;;;;;;;;;;;;;5025278;28;19905;-47
2024/02/19 05:09:03;;;;;;;;;;;;;;;;;;5025511;28;19905;-48
2024/02/19 05:11:29;;;;;;;;;;;;;;;;;;5025162;28;20184;-49
2024/02/19 05:13:56;;;;;;;;;;;;;;;;;;5025600;28;19912;-51
2024/02/19 05:16:22;;;;;;;;;;;;;;;;;;5024903;28;19909;-56
2024/02/19 05:18:49;;;;;;;;;;;;;;;;;;5025272;28;19906;-49
2024/02/19 05:21:15;;;;;;;;;;;;;;;;;;5025002;28;19906;-53
2024/02/19 05:23:42;;;;;;;;;;;;;;;;;;5025175;28;19905;-52
2024/02/19 05:26:08;;;;;;;;;;;;;;;;;;5024881;28;20217;-47
2024/02/19 05:28:34;;;;;;;;;;;;;;;;;;5025171;28;19925;-50
2024/02/19 05:31:01;;;;;;;;;;;;;;;;;;5024713;28;19905;-47
2024/02/19 05:33:28;;;;;;;;;;;;;;;;;;5024928;28;20132;-45
2024/02/19 05:35:54;;;;;;;;;;;;;;;;;;5024806;28;20284;-52
2024/02/19 05:38:20;;;;;;;;;;;;;;;;;;5024902;28;19906;-46
2024/02/19 05:40:46;;;;;;;;;;;;;;;;;;5024587;28;19940;-53
2024/02/19 05:43:12;;;;;;;;;;;;;;;;;;5025184;28;20113;-51
2024/02/19 05:45:39;;;;;;;;;;;;;;;;;;5024700;28;19905;-55
2024/02/19 05:48:05;;;;;;;;;;;;;;;;;;5024670;28;20181;-51
2024/02/19 05:50:32;;;;;;;;;;;;;;;;;;5024919;28;20136;-48
2024/02/19 05:52:58;;;;;;;;;;;;;;;;;;5024569;28;19913;-50
2024/02/19 05:55:24;;;;;;;;;;;;;;;;;;5024340;28;19968;-55
2024/02/19 05:57:50;;;;;;;;;;;;;;;;;;5024462;28;19905;-49
2024/02/19 06:00:16;;;;;;;;;;;;;;;;;;5024421;28;19916;-52
2024/02/19 06:02:42;;;;;;;;;;;;;;;;;;5023767;28;19905;-50
2024/02/19 06:05:09;;;;;;;;;;;;;;;;;;5024514;28;19940;-48
2024/02/19 06:07:35;;;;;;;;;;;;;;;;;;5024311;28;19972;-49
2024/02/19 06:10:01;;;;;;;;;;;;;;;;;;5024184;28;19928;-56
2024/02/19 06:12:27;;;;;;;;;;;;;;;;;;5024242;28;19902;-52
2024/02/19 06:14:54;;;;;;;;;;;;;;;;;;5024416;28;19968;-52
2024/02/19 06:17:20;;;;;;;;;;;;;;;;;;5024003;28;19905;-53
2024/02/19 06:19:46;;;;;;;;;;;;;;;;;;5024238;28;19912;-50
2024/02/19 06:22:12;;;;;;;;;;;;;;;;;;5024296;28;20157;-52
2024/02/19 06:24:38;;;;;;;;;;;;;;;;;;5024146;28;19909;-47
2024/02/19 06:27:06;;;;;;;;;;;;;;;;;;5023939;28;19935;-52
2024/02/19 06:29:33;;;;;;;;;;;;;;;;;;5024554;28;20098;-51
2024/02/19 06:31:59;;;;;;;;;;;;;;;;;;5024067;28;20100;-53
2024/02/19 06:34:28;;;;;;;;;;;;;;;;;;5024366;28;19950;-53
2024/02/19 06:36:54;;;;;;;;;;;;;;;;;;5024120;28;19932;-53
2024/02/19 06:39:20;;;;;;;;;;;;;;;;;;5024474;28;19905;-52
2024/02/19 06:41:47;;;;;;;;;;;;;;;;;;5023847;28;20220;-55
2024/02/19 06:44:13;;;;;;;;;;;;;;;;;;5024688;28;19905;-51
2024/02/19 06:46:39;;;;;;;;;;;;;;;;;;5023934;28;19929;-53
2024/02/19 06:49:05;;;;;;;;;;;;;;;;;;5024199;28;19936;-55
2024/02/19 06:51:31;;;;;;;;;;;;;;;;;;5023888;28;19912;-53
2024/02/19 06:53:57;;;;;;;;;;;;;;;;;;5024289;28;20089;-52
2024/02/19 06:56:24;;;;;;;;;;;;;;;;;;5023490;28;19909;-54
2024/02/19 06:58:50;;;;;;;;;;;;;;;;;;5024376;28;19912;-53
2024/02/19 07:01:16;;;;;;;;;;;;;;;;;;5023788;28;19943;-54
2024/02/19 07:03:42;;;;;;;;;;;;;;;;;;5023829;28;19941;-55
2024/02/19 07:06:08;;;;;;;;;;;;;;;;;;5024010;28;19911;-53
2024/02/19 07:08:34;;;;;;;;;;;;;;;;;;5023831;28;19912;-52
2024/02/19 07:11:01;;;;;;;;;;;;;;;;;;5023685;28;19905;-51
2024/02/19 07:13:27;;;;;;;;;;;;;;;;;;5024360;28;19935;-56
2024/02/19 07:15:53;;;;;;;;;;;;;;;;;;5027242;28;20108;-51
2024/02/19 07:18:19;;;;;;;;;;;;;;;;;;5027598;28;19912;-54
2024/02/19 07:20:45;;;;;;;;;;;;;;;;;;5027500;28;19905;-53
2024/02/19 07:23:11;;;;;;;;;;;;;;;;;;5027301;28;19943;-55
2024/02/19 07:25:38;;;;;;;;;;;;;;;;;;5027073;28;19913;-56
2024/02/19 07:28:04;;;;;;;;;;;;;;;;;;5027076;28;19905;-54
2024/02/19 07:30:30;;;;;;;;;;;;;;;;;;5027030;28;19906;-53
2024/02/19 07:32:56;;;;;;;;;;;;;;;;;;5027257;28;20189;-51
2024/02/19 07:35:23;;;;;;;;;;;;;;;;;;5026926;28;19967;-51
2024/02/19 07:37:49;;;;;;;;;;;;;;;;;;5026882;28;20116;-52
2024/02/19 07:40:15;;;;;;;;;;;;;;;;;;5027170;28;19905;-51
2024/02/19 07:42:41;;;;;;;;;;;;;;;;;;5026921;28;19905;-53
2024/02/19 07:45:07;;;;;;;;;;;;;;;;;;5027125;28;19944;-52
2024/02/19 07:47:34;;;;;;;;;;;;;;;;;;5026704;28;20205;-52
2024/02/19 07:50:00;;;;;;;;;;;;;;;;;;5026512;28;19945;-49
2024/02/19 07:52:26;;;;;;;;;;;;;;;;;;5026536;28;19905;-53
2024/02/19 07:54:52;;;;;;;;;;;;;;;;;;5026548;28;19906;-55
2024/02/19 07:57:18;;;;;;;;;;;;;;;;;;5026312;28;19905;-51
2024/02/19 07:59:45;;;;;;;;;;;;;;;;;;5026672;28;20264;-53
2024/02/19 08:02:11;;;;;;;;;;;;;;;;;;5026786;28;19897;-52
2024/02/19 08:04:37;;;;;;;;;;;;;;;;;;5026522;28;19913;-53
2024/02/19 08:07:03;;;;;;;;;;;;;;;;;;5026457;28;19937;-51
2024/02/19 08:09:29;;;;;;;;;;;;;;;;;;5026097;28;19905;-52
2024/02/19 08:11:57;;;;;;;;;;;;;;;;;;5026486;28;19905;-50
2024/02/19 08:14:24;;;;;;;;;;;;;;;;;;5026480;28;19955;-46
2024/02/19 08:16:51;;;;;;;;;;;;;;;;;;5026014;28;19909;-45
2024/02/19 08:19:17;;;;;;;;;;;;;;;;;;5026426;28;19947;-47
2024/02/19 08:21:44;;;;;;;;;;;;;;;;;;5025855;28;19909;-52
2024/02/19 08:24:10;;;;;;;;;;;;;;;;;;5026383;28;19905;-48
2024/02/19 08:26:36;;;;;;;;;;;;;;;;;;5025400;28;20189;-50
2024/02/19 08:29:04;;;;;;;;;;;;;;;;;;5026162;28;19905;-44
2024/02/19 08:31:30;;;;;;;;;;;;;;;;;;5025951;28;19909;-46
2024/02/19 08:33:56;;;;;;;;;;;;;;;;;;5026257;28;19906;-47
2024/02/19 08:36:22;;;;;;;;;;;;;;;;;;5025616;28;20141;-53
2024/02/19 08:38:49;;;;;;;;;;;;;;;;;;5025682;28;19910;-51
2024/02/19 08:41:15;;;;;;;;;;;;;;;;;;5025582;28;19906;-45
2024/02/19 08:43:42;;;;;;;;;;;;;;;;;;5025782;28;20224;-44
2024/02/19 08:46:08;;;;;;;;;;;;;;;;;;5025834;28;19906;-47
2024/02/19 08:48:34;;;;;;;;;;;;;;;;;;5025888;28;19905;-46
2024/02/19 08:51:01;;;;;;;;;;;;;;;;;;5025419;28;19905;-51
2024/02/19 08:53:28;;;;;;;;;;;;;;;;;;5025604;28;19912;-47
2024/02/19 08:55:54;;;;;;;;;;;;;;;;;;5025451;28;19912;-48
2024/02/19 08:58:20;;;;;;;;;;;;;;;;;;5025459;28;19940;-46
2024/02/19 09:00:46;;;;;;;;;;;;;;;;;;5025602;28;20310;-44
2024/02/19 09:03:12;;;;;;;;;;;;;;;;;;5025495;28;19912;-50
2024/02/19 09:05:39;;;;;;;;;;;;;;;;;;5025115;28;19917;-44
2024/02/19 09:08:05;;;;;;;;;;;;;;;;;;5025326;28;20121;-50
2024/02/19 09:10:31;;;;;;;;;;;;;;;;;;5025215;28;19906;-48
2024/02/19 09:12:57;;;;;;;;;;;;;;;;;;5025308;28;19905;-49
2024/02/19 09:15:23;;;;;;;;;;;;;;;;;;5024998;28;19905;-50
2024/02/19 09:17:50;;;;;;;;;;;;;;;;;;5025144;28;19917;-45
2024/02/19 09:20:16;;;;;;;;;;;;;;;;;;5025012;28;19912;-50
2024/02/19 09:22:43;;;;;;;;;;;;;;;;;;5024730;28;19905;-48
2024/02/19 09:25:09;;;;;;;;;;;;;;;;;;5024958;28;19906;-48
2024/02/19 09:27:38;;;;;;;;;;;;;;;;;;5024980;28;20170;-54
2024/02/19 09:30:04;;;;;;;;;;;;;;;;;;5024803;28;19944;-47
2024/02/19 09:32:30;;;;;;;;;;;;;;;;;;5024999;28;19901;-56
2024/02/19 09:34:57;;;;;;;;;;;;;;;;;;5024843;28;19912;-56
2024/02/19 09:37:25;;;;;;;;;;;;;;;;;;5023693;28;20193;-59
2024/02/19 09:39:58;;;;;;;;;;;;;;;;;;5024634;28;19913;-59
2024/02/19 09:42:24;;;;;;;;;;;;;;;;;;5024704;28;19961;-56
2024/02/19 09:44:50;;;;;;;;;;;;;;;;;;5024506;28;19905;-55
2024/02/19 09:47:16;;;;;;;;;;;;;;;;;;5024763;28;19904;-45
2024/02/19 09:49:42;;;;;;;;;;;;;;;;;;5024659;28;19943;-51
2024/02/19 09:52:09;;;;;;;;;;;;;;;;;;5024736;28;19897;-48
2024/02/19 09:54:35;;;;;;;;;;;;;;;;;;5024978;28;19911;-53
2024/02/19 09:57:02;;;;;;;;;;;;;;;;;;5024397;28;19909;-48
2024/02/19 09:59:29;;;;;;;;;;;;;;;;;;5024733;28;19947;-51
2024/02/19 10:01:55;;;;;;;;;;;;;;;;;;5024376;28;20008;-54
2024/02/19 10:04:21;;;;;;;;;;;;;;;;;;5024374;28;20257;-54
2024/02/19 10:06:48;;;;;;;;;;;;;;;;;;5024157;28;19905;-50
2024/02/19 10:09:14;;;;;;;;;;;;;;;;;;5024757;28;19905;-50
2024/02/19 10:11:40;;;;;;;;;;;;;;;;;;5024243;28;19906;-49
2024/02/19 10:14:06;;;;;;;;;;;;;;;;;;5024654;28;20178;-45
2024/02/19 10:16:32;;;;;;;;;;;;;;;;;;5024088;28;20286;-49
2024/02/19 10:18:59;;;;;;;;;;;;;;;;;;5024771;28;19909;-51
2024/02/19 10:21:25;;;;;;;;;;;;;;;;;;5024306;28;19928;-50
2024/02/19 10:23:51;;;;;;;;;;;;;;;;;;5024609;28;19944;-52
2024/02/19 10:26:17;;;;;;;;;;;;;;;;;;5024463;28;19972;-50
2024/02/19 10:28:43;;;;;;;;;;;;;;;;;;5024394;28;19928;-51
2024/02/19 10:31:10;;;;;;;;;;;;;;;;;;5023966;28;19905;-49
2024/02/19 10:33:37;;;;;;;;;;;;;;;;;;5024524;28;19905;-46
2024/02/19 10:36:03;;;;;;;;;;;;;;;;;;5023946;28;19952;-46
2024/02/19 10:38:29;;;;;;;;;;;;;;;;;;5024220;28;19911;-48
2024/02/19 10:40:56;;;;;;;;;;;;;;;;;;5024239;28;19905;-52
2024/02/19 10:43:23;;;;;;;;;;;;;;;;;;5024186;28;19905;-48
2024/02/19 10:45:52;;;;;;;;;;;;;;;;;;5023881;28;19937;-53
2024/02/19 10:48:18;;;;;;;;;;;;;;;;;;5024337;28;19912;-51
2024/02/19 10:50:44;;;;;;;;;;;;;;;;;;5027511;28;20275;-51
2024/02/19 10:53:10;;;;;;;;;;;;;;;;;;5027965;28;19905;-51
2024/02/19 10:55:38;;;;;;;;;;;;;;;;;;5027845;28;19937;-45
2024/02/19 10:58:04;;;;;;;;;;;;;;;;;;5027759;28;19917;-46
2024/02/19 11:00:30;;;;;;;;;;;;;;;;;;5027525;28;19906;-48
2024/02/19 11:02:57;;;;;;;;;;;;;;;;;;5027798;28;19905;-45
2024/02/19 11:05:23;;;;;;;;;;;;;;;;;;5027477;28;20141;-47
2024/02/19 11:07:49;;;;;;;;;;;;;;;;;;5027373;28;19905;-51
2024/02/19 11:10:16;;;;;;;;;;;;;;;;;;5027507;28;19913;-54
2024/02/19 11:12:42;;;;;;;;;;;;;;;;;;5027685;28;19940;-49
2024/02/19 11:15:08;;;;;;;;;;;;;;;;;;5027366;28;19912;-50
2024/02/19 11:17:34;;;;;;;;;;;;;;;;;;5027273;28;19909;-49
2024/02/19 11:20:01;;;;;;;;;;;;;;;;;;5027297;28;20144;-52
2024/02/19 11:22:37;;;;;;;;;;;;;;;;;;5026512;28;20193;-52
2024/02/19 11:25:03;;;;;;;;;;;;;;;;;;5027198;28;19913;-49
2024/02/19 11:27:30;;;;;;;;;;;;;;;;;;5025801;28;19972;-51
2024/02/19 11:29:57;;;;;;;;;;;;;;;;;;5025949;28;19909;-47
2024/02/19 11:32:23;;;;;;;;;;;;;;;;;;5026580;28;19902;-48
2024/02/19 11:34:49;;;;;;;;;;;;;;;;;;5026753;28;19909;-47
2024/02/19 11:37:16;;;;;;;;;;;;;;;;;;5026789;28;19912;-50
2024/02/19 11:39:44;;;;;;;;;;;;;;;;;;5027214;28;19917;-49
2024/02/19 11:42:14;;;;;;;;;;;;;;;;;;5026712;28;19919;-46
2024/02/19 11:44:40;;;;;;;;;;;;;;;;;;5025364;28;19909;-47
2024/02/19 11:47:07;;;;;;;;;;;;;;;;;;5025280;28;19968;-46
2024/02/19 11:49:34;;;;;;;;;;;;;;;;;;5025905;28;19905;-53
2024/02/19 11:52:06;;;;;;;;;;;;;;;;;;5025149;28;20162;-50
2024/02/19 11:54:33;;;;;;;;;;;;;;;;;;5025140;28;19980;-45
2024/02/19 11:57:03;;;;;;;;;;;;;;;;;;5025552;28;19910;-51
2024/02/19 11:59:29;;;;;;;;;;;;;;;;;;5026776;28;19972;-49
2024/02/19 12:01:56;;;;;;;;;;;;;;;;;;5026183;28;20105;-50
2024/02/19 12:04:22;;;;;;;;;;;;;;;;;;5026506;28;19919;-47
2024/02/19 12:06:48;;;;;;;;;;;;;;;;;;5026321;28;19905;-56
2024/02/19 12:09:15;;;;;;;;;;;;;;;;;;5026814;28;19940;-52
2024/02/19 12:11:41;;;;;;;;;;;;;;;;;;5026457;28;19906;-51
2024/02/19 12:14:08;;;;;;;;;;;;;;;;;;5026575;28;19906;-49
2024/02/19 12:16:34;;;;;;;;;;;;;;;;;;5026369;28;19909;-50
2024/02/19 12:19:00;;;;;;;;;;;;;;;;;;5026517;28;19906;-50
2024/02/19 12:21:27;;;;;;;;;;;;;;;;;;5026171;28;19948;-48
2024/02/19 12:23:54;;;;;;;;;;;;;;;;;;5026619;28;19911;-52
2024/02/19 12:26:20;;;;;;;;;;;;;;;;;;5026001;28;19910;-46
2024/02/19 12:28:46;;;;;;;;;;;;;;;;;;5026540;28;19905;-48
2024/02/19 12:31:12;;;;;;;;;;;;;;;;;;5025801;28;19906;-55
2024/02/19 12:33:38;;;;;;;;;;;;;;;;;;5026280;28;20089;-46
2024/02/19 12:36:08;;;;;;;;;;;;;;;;;;5025840;28;20101;-46
2024/02/19 12:38:35;;;;;;;;;;;;;;;;;;5025646;28;19905;-48
2024/02/19 12:41:01;;;;;;;;;;;;;;;;;;5025842;28;19906;-49
2024/02/19 12:43:27;;;;;;;;;;;;;;;;;;5026130;28;20145;-47
2024/02/19 12:45:53;;;;;;;;;;;;;;;;;;5025650;28;19906;-45
2024/02/19 12:48:20;;;;;;;;;;;;;;;;;;5025910;28;19968;-52
2024/02/19 12:50:46;;;;;;;;;;;;;;;;;;5025834;28;19905;-50
2024/02/19 12:53:13;;;;;;;;;;;;;;;;;;5025585;28;19905;-45
2024/02/19 12:55:40;;;;;;;;;;;;;;;;;;5025559;28;19906;-48
2024/02/19 12:58:06;;;;;;;;;;;;;;;;;;5025617;28;19917;-44
2024/02/19 13:00:32;;;;;;;;;;;;;;;;;;5024780;28;19905;-49
2024/02/19 13:02:59;;;;;;;;;;;;;;;;;;5025397;28;19913;-51
2024/02/19 13:05:27;;;;;;;;;;;;;;;;;;5025259;28;19924;-50
2024/02/19 13:07:53;;;;;;;;;;;;;;;;;;5025400;28;20067;-51
2024/02/19 13:10:19;;;;;;;;;;;;;;;;;;5025591;28;19912;-54
2024/02/19 13:12:45;;;;;;;;;;;;;;;;;;5025115;28;19968;-54
2024/02/19 13:15:11;;;;;;;;;;;;;;;;;;5025222;28;19906;-52
2024/02/19 13:17:38;;;;;;;;;;;;;;;;;;5025166;28;19968;-53
2024/02/19 13:20:04;;;;;;;;;;;;;;;;;;5025303;28;19906;-52
2024/02/19 13:22:31;;;;;;;;;;;;;;;;;;5025007;28;19902;-47
2024/02/19 13:24:57;;;;;;;;;;;;;;;;;;5025579;28;19924;-52
2024/02/19 13:27:23;;;;;;;;;;;;;;;;;;5025000;28;19916;-53
2024/02/19 13:29:49;;;;;;;;;;;;;;;;;;5025011;28;19905;-48
2024/02/19 13:32:16;;;;;;;;;;;;;;;;;;5024357;28;19905;-50
2024/02/19 13:34:42;;;;;;;;;;;;;;;;;;5024356;28;19916;-54
2024/02/19 13:37:08;;;;;;;;;;;;;;;;;;5024763;28;19912;-49
2024/02/19 13:39:34;;;;;;;;;;;;;;;;;;5024819;28;20193;-54
2024/02/19 13:42:00;;;;;;;;;;;;;;;;;;5024715;28;19912;-48
2024/02/19 13:44:27;;;;;;;;;;;;;;;;;;5025280;28;20094;-52
2024/02/19 13:46:53;;;;;;;;;;;;;;;;;;5024589;28;19983;-52
2024/02/19 13:49:19;;;;;;;;;;;;;;;;;;5022958;28;19905;-50
2024/02/19 13:51:45;;;;;;;;;;;;;;;;;;5013953;28;19927;-59
2024/02/19 13:54:12;;;;;;;;;;;;;;;;;;5024607;28;19936;-48
2024/02/19 13:56:39;;;;;;;;;;;;;;;;;;5024901;28;19909;-52
2024/02/19 13:59:07;;;;;;;;;;;;;;;;;;5024527;28;20116;-50
2024/02/19 14:01:33;;;;;;;;;;;;;;;;;;5024773;28;20135;-49
2024/02/19 14:03:59;;;;;;;;;;;;;;;;;;5023639;28;19913;-44
2024/02/19 14:06:26;;;;;;;;;;;;;;;;;;5024634;28;19941;-47
2024/02/19 14:08:53;;;;;;;;;;;;;;;;;;5024801;28;19972;-45
2024/02/19 14:11:19;;;;;;;;;;;;;;;;;;5024551;28;20068;-45
2024/02/19 14:13:45;;;;;;;;;;;;;;;;;;5024825;28;19920;-46
2024/02/19 14:16:12;;;;;;;;;;;;;;;;;;5024378;28;19929;-50
2024/02/19 14:18:38;;;;;;;;;;;;;;;;;;5024794;28;19936;-45
2024/02/19 14:21:10;;;;;;;;;;;;;;;;;;5024684;28;19905;-45
2024/02/19 14:23:37;;;;;;;;;;;;;;;;;;5025283;28;19909;-55
2024/02/19 14:26:03;;;;;;;;;;;;;;;;;;5028590;28;19951;-50
2024/02/19 14:28:29;;;;;;;;;;;;;;;;;;5028774;28;19905;-50
2024/02/19 14:30:55;;;;;;;;;;;;;;;;;;5028669;28;20116;-51
2024/02/19 14:33:21;;;;;;;;;;;;;;;;;;5028618;28;19921;-47
2024/02/19 14:35:48;;;;;;;;;;;;;;;;;;5027874;28;19963;-48
2024/02/19 14:38:14;;;;;;;;;;;;;;;;;;5028197;28;19909;-50
2024/02/19 14:40:40;;;;;;;;;;;;;;;;;;5027522;28;20165;-44
2024/02/19 14:43:06;;;;;;;;;;;;;;;;;;5028404;28;19905;-54
2024/02/19 14:45:33;;;;;;;;;;;;;;;;;;5028312;28;19905;-57
2024/02/19 14:48:00;;;;;;;;;;;;;;;;;;5027455;28;20216;-55
2024/02/19 14:50:26;;;;;;;;;;;;;;;;;;5028000;28;19913;-50
2024/02/19 14:52:52;;;;;;;;;;;;;;;;;;5028113;28;19908;-54
2024/02/19 14:55:19;;;;;;;;;;;;;;;;;;5027386;28;19909;-44
2024/02/19 14:57:46;;;;;;;;;;;;;;;;;;5027732;28;19980;-53
2024/02/19 15:00:15;;;;;;;;;;;;;;;;;;5028091;28;20192;-47
2024/02/19 15:02:42;;;;;;;;;;;;;;;;;;5027747;28;19912;-48
2024/02/19 15:05:08;;;;;;;;;;;;;;;;;;5027673;28;19932;-47
2024/02/19 15:07:34;;;;;;;;;;;;;;;;;;5027744;28;19977;-56
2024/02/19 15:10:00;;;;;;;;;;;;;;;;;;5026965;28;19913;-55
2024/02/19 15:12:26;;;;;;;;;;;;;;;;;;5025678;28;19905;-57
2024/02/19 15:14:53;;;;;;;;;;;;;;;;;;5027635;28;19905;-57
2024/02/19 15:17:19;;;;;;;;;;;;;;;;;;5027540;28;19940;-49
2024/02/19 15:19:46;;;;;;;;;;;;;;;;;;5027493;28;19912;-56
2024/02/19 15:22:15;;;;;;;;;;;;;;;;;;5027498;28;19960;-55
2024/02/19 15:24:41;;;;;;;;;;;;;;;;;;5026777;28;19947;-52
2024/02/19 15:27:07;;;;;;;;;;;;;;;;;;5027363;28;19908;-52
2024/02/19 15:29:33;;;;;;;;;;;;;;;;;;5027761;28;20125;-58
2024/02/19 15:32:00;;;;;;;;;;;;;;;;;;5027105;28;19905;-57
2024/02/19 15:34:26;;;;;;;;;;;;;;;;;;5027383;28;20027;-55
2024/02/19 15:36:52;;;;;;;;;;;;;;;;;;5025912;28;19916;-57
2024/02/19 15:39:18;;;;;;;;;;;;;;;;;;5027106;28;19905;-59
2024/02/19 15:41:45;;;;;;;;;;;;;;;;;;5016121;28;20083;-60
2024/02/19 15:44:11;;;;;;;;;;;;;;;;;;5017073;28;20121;-60
2024/02/19 15:46:38;;;;;;;;;;;;;;;;;;5024512;28;19940;-52
2024/02/19 15:49:04;;;;;;;;;;;;;;;;;;5023582;28;19968;-51
2024/02/19 15:51:30;;;;;;;;;;;;;;;;;;5015592;28;20101;-53
2024/02/19 15:53:56;;;;;;;;;;;;;;;;;;5017622;28;19936;-51
2024/02/19 15:56:24;;;;;;;;;;;;;;;;;;5016720;28;19929;-55
2024/02/19 15:58:50;;;;;;;;;;;;;;;;;;5015430;28;20194;-54
2024/02/19 16:01:16;;;;;;;;;;;;;;;;;;5017155;28;19976;-55
2024/02/19 16:03:44;;;;;;;;;;;;;;;;;;5016747;28;20138;-50
2024/02/19 16:06:11;;;;;;;;;;;;;;;;;;5015406;28;19906;-50
2024/02/19 16:08:38;;;;;;;;;;;;;;;;;;5017279;28;19905;-53
2024/02/19 16:11:04;;;;;;;;;;;;;;;;;;5016631;28;19913;-52
2024/02/19 16:13:30;;;;;;;;;;;;;;;;;;5015339;28;20191;-47
2024/02/19 16:15:56;;;;;;;;;;;;;;;;;;5016882;28;20101;-57
2024/02/19 16:18:22;;;;;;;;;;;;;;;;;;5016492;28;19917;-56
2024/02/19 16:20:52;;;;;;;;;;;;;;;;;;5015417;28;19913;-55
2024/02/19 16:23:18;;;;;;;;;;;;;;;;;;5016983;28;20254;-56
2024/02/19 16:25:44;;;;;;;;;;;;;;;;;;5021874;28;19984;-56
2024/02/19 16:28:10;;;;;;;;;;;;;;;;;;5015204;28;20223;-52
2024/02/19 16:30:36;;;;;;;;;;;;;;;;;;5016576;28;19988;-49
2024/02/19 16:33:02;;;;;;;;;;;;;;;;;;5018876;28;19912;-53
2024/02/19 16:35:29;;;;;;;;;;;;;;;;;;5017482;28;20125;-51
2024/02/19 16:37:55;;;;;;;;;;;;;;;;;;5016468;28;19909;-53
2024/02/19 16:40:23;;;;;;;;;;;;;;;;;;5015848;28;19964;-55